Sundsvall-Härnösand Airport

ESNN · Västernorrland, 瑞典

罗盘
风向 的 风向 140° Sundsvall-Härnösand Airport 16/34
风: 3 kt, 1 beaufort

3 kt

1 kt
改变
0 ft 1.000 2.000 3.000 4.000 5.000
Cloud Cloud Cloud Cloud Cloud Cloud Cloud Cloud
OVC 600
METAR ESNN 212150Z AUTO 14003KT 9999 OVC006/// 16/15 Q1014

METAR Sundsvall-Härnösand Airport - ESNN/SDL

Sundsvall-Härnösand Airport是,瑞典中的中型机场。 该机场位于纬度62,52775和经度17,44420。 该机场有一条跑道: 16/34. 本场的ICAO机场代码为ESNN。 该机场的IATA代码为SDL。 机场在Sweden FIR中。

该航空气象观测是针对Sundsvall-Härnösand Airport在2024年7月21日 23:50, 当地时间进行的。

机场观察

风向为140°,速度为3 kt。

可见度为10 km 或者更多。

有乌云密布在600 ft的高度。 破损或更高的上限为600 ft。

温度和风寒是16 °C。 露点为15 °C,相对湿度为94%。 海平面上的气压为1014 hPa (QNH)。

白天

今天,太阳从03:43升起,在22:09降落。 这适用于Sundsvall-Härnösand Airport,世界夏令时可能有所不同。 当地时间与世界标准时间之间的时差为+2 小时。 夏令时目前正在进行中。

公司介绍

我们没有关于这个机场的公司信息。

体会

到Vliegles.nl去找飞行课程,跳伞和其他飞行体验。 浏览页面,了解Sundsvall-Härnösand Airport附近所有可用的活动。 你也可以使用搜索功能来寻找你所在地附近的特定飞行课程、跳伞或其他飞行体验。

跑道

Id 标题 侧风 逆风 侧风 %
16/34 160°-340° 1 kt 3 kt 34 %

逆风成分最大的方向会被突出显示,并用于横风计算。 这并不一定意味着这个方向在使用。

乌云

600 ft OVC 乌云密布

温度 & 天气

温度 16 °C
露点 15 °C
相对湿度 94%
Kp-index 2 (0-9)

白天

日出
03:43 (3:33)
中午
12:56
日落
22:09

小工具

你想在你的网站上有一个关于Sundsvall-Härnösand Airport的当前航空天气(METAR)的小部件吗?

显示HTML代码
报告变更